Airfield :
LOGIN :

Register | Disclaimer

   EN    FR    IT 

 










Legend :    VFR   Marginal VFR   IFR   Intensive IFR   Very Intensive IFR
Visi :
Ceiling :
>= 8 km
>= 3000ft
5 to 8 km
1000 to 3000 ft
1500m to 5 km
500 to 1000 ft
800 to 1500m
200 to 500 ft
< 800m
< 200 ft
Symbols :   Thunderstorms  Fog  Heavy snow  Heavy precipitations  Wind > 20 kt
SIGMETs :     Misc.  Thunderstorms  Icing  Turbulence  Mountain Waves  Volcanic Ashes







- Airport Elevation : 42 ft
- IATA code : LMO


EGQS - Lossiemouth

CURRENT METAR :
  • 170718Z 25019KT 9999 -RA FEW014 OVC038 12/11 Q0994 BLU TEMPO 4000 RADZ SCT014 GRN

EXPIRED METARs :
  • 170650Z 26018KT 9999 -RA SCT014 OVC035 12/11 Q0993 GRN TEMPO 4000 RADZ GRN
  • 170550Z 26020KT 8000 -RADZ BKN008 BKN015 OVC060 12/11 Q0991 REDZ GRN TEMPO 4000 RADZ GRN
  • 170450Z 06004KT 6000 -RADZ OVC017 12/11 Q0988 RERA WHT

TAF TAF EGQS
Valid from the 17 at 06:00 until the 18 at 00:00 UTC


170425Z 1706/1724 26022G35KT 9999 BKN025
TEMPO 1706/1718 4000 RADZ BKN014
BECMG 1708/1710 BKN016
BECMG 1709/1712 32022G32KT
PROB30
TEMPO 1709/1713 2500 DZ BKN006
BECMG 1716/1719 36017KT SCT025
No reported NOTAMs for that airfield.
4 SIGMETs reported for the Scottish FIR (EGPX) :
 
Severe turbulence
EGPX SIGMET 06 VALID 170553/170900 EGRR
EGPX SCOTTISH FIR SEV TURB FCST E OF LINE N6100 W00800 - N5350 W00800 SFC/FL060 MOV E 15KT NC=
SIGMET 04 cancelation
EGPX SIGMET 05 VALID 170549/170900 EGRR
EGPX SCOTTISH FIR CNL SIGMET 04 170500/170900=
SIGMET 04  CANCELED :
Severe turbulence
EGPX SIGMET 04 VALID 170500/170900 EGRR
EGPX SCOTTISH FIR SEV TURB FCST E OF LINE N6100 W00815 - N5520 W00815 SFC/FL060 MOV E 15KT NC=
Severe mountain waves
EGPX SIGMET 03 VALID 170500/170900 EGRR
EGPX SCOTTISH FIR SEV MTW FCST WI N5500 E00115 - N5500 W00530 - N5355 W00530 - N5425 W00810 - N6100 W00810 - N6100 E00000 - N6000 E00000 - N5914 E00117 - N5500 E00115 FL030/200 STNR WKN=



MET'MAP, your aeronautical weather chart ! - Copyright ORBIFLY December 2007 - Disclaimer

ORBIFLY MET'MAP TEAM :

Programming & Development : Alexandra Zaïnal
Concept & Development : Baudouin d'Aumeries
Co-Development & Prog : Marc-Olivier Méhu
Technical & hardware support : Manuel Goepfert

Contact : metmap@orbifly.com




SOURCES & CREDITS :

   NOAA